Time;durP1;ratioP1;P1;durP2;ratioP2;P2;SDS_P1;SDS_P2;PMS_P1;PMS_P2;Temp;Humidity;BMP_temperature;BMP_pressure;BME280_temperature;BME280_humidity;BME280_pressure;Samples;Min_cycle;Max_cycle;Signal;HPM_P1;HPM_P2
2022/04/03 00:00:39;;;;;;;15.78;6.00;;;;;;;-0.41;48.14;100055.30;2070652;84;30067;-69
2022/04/03 00:03:43;;;;;;;20.48;6.58;;;;;;;-0.43;48.10;100047.85;2099362;84;28240;-69
2022/04/03 00:06:44;;;;;;;12.58;5.53;;;;;;;-0.46;48.23;100049.62;2060375;84;28647;-67
2022/04/03 00:09:46;;;;;;;12.37;5.90;;;;;;;-0.50;48.23;100046.61;2064059;84;32128;-72
2022/04/03 00:12:49;;;;;;;11.97;4.95;;;;;;;-0.51;48.27;100046.60;2072939;84;33304;-71
2022/04/03 00:19:02;;;;;;;17.87;5.28;;;;;;;-0.54;48.63;100050.56;2058862;81;27671;-66
2022/04/03 00:22:04;;;;;;;16.52;5.62;;;;;;;-0.56;48.46;100042.70;2058993;85;29461;-65
2022/04/03 00:25:07;;;;;;;18.12;6.05;;;;;;;-0.58;48.66;100043.15;2058969;86;31685;-66
2022/04/03 00:28:08;;;;;;;14.60;5.70;;;;;;;-0.60;48.62;100046.23;2058198;85;33783;-67
2022/04/03 00:31:12;;;;;;;15.40;5.97;;;;;;;-0.60;48.60;100044.06;2059025;85;29622;-66
2022/04/03 00:34:14;;;;;;;12.85;5.37;;;;;;;-0.62;48.96;100041.42;2058351;86;27703;-65
2022/04/03 00:37:16;;;;;;;8.93;4.30;;;;;;;-0.64;48.96;100045.39;2059139;85;28601;-66
2022/04/03 00:40:21;;;;;;;10.15;4.40;;;;;;;-0.67;49.41;100039.29;2056326;85;31001;-65
2022/04/03 00:43:21;;;;;;;7.10;4.30;;;;;;;-0.68;49.16;100043.66;2023107;87;33001;-66
2022/04/03 00:46:23;;;;;;;15.15;5.40;;;;;;;-0.69;49.25;100039.28;2024113;86;30461;-66
2022/04/03 00:49:25;;;;;;;11.45;5.62;;;;;;;-0.69;49.25;100045.86;2039468;86;27681;-66
2022/04/03 00:52:27;;;;;;;9.15;4.33;;;;;;;-0.70;49.33;100049.38;2059047;85;29425;-66
2022/04/03 00:55:29;;;;;;;17.52;5.35;;;;;;;-0.70;49.48;100053.78;2058429;86;31023;-66
2022/04/03 00:58:31;;;;;;;13.13;4.90;;;;;;;-0.71;49.66;100048.08;2058422;85;33006;-65
2022/04/03 01:01:33;;;;;;;10.53;4.37;;;;;;;-0.73;49.87;100057.28;2058131;85;29638;-64
2022/04/03 01:04:39;;;;;;;10.50;4.85;;;;;;;-0.73;49.71;100056.42;2058785;85;27755;-64
2022/04/03 01:07:43;;;;;;;10.20;4.00;;;;;;;-0.74;49.79;100052.05;2058550;85;29856;-65
2022/04/03 01:10:45;;;;;;;13.98;4.80;;;;;;;-0.76;49.96;100058.64;2058702;85;30503;-64
2022/04/03 01:13:49;;;;;;;9.68;3.77;;;;;;;-0.77;50.06;100055.13;2058650;85;33861;-65
2022/04/03 01:16:51;;;;;;;10.70;4.97;;;;;;;-0.79;50.08;100059.98;2059412;84;30422;-64
2022/04/03 01:19:53;;;;;;;15.58;4.50;;;;;;;-0.80;49.93;100056.45;2076788;85;27708;-64
2022/04/03 01:22:55;;;;;;;8.38;4.17;;;;;;;-0.79;49.99;100062.15;2077069;85;29510;-64
2022/04/03 01:25:57;;;;;;;12.70;4.58;;;;;;;-0.80;50.20;100060.86;2076949;85;31384;-63
2022/04/03 01:28:59;;;;;;;9.13;4.37;;;;;;;-0.82;50.32;100064.80;2076989;85;32799;-63
2022/04/03 01:32:01;;;;;;;9.60;3.87;;;;;;;-0.83;50.48;100056.93;2077029;85;29984;-63
2022/04/03 01:35:04;;;;;;;8.00;3.77;;;;;;;-0.84;50.38;100063.07;2076590;85;27589;-64
2022/04/03 01:38:07;;;;;;;11.48;4.33;;;;;;;-0.86;50.79;100061.78;2077085;85;29473;-63
2022/04/03 01:41:08;;;;;;;17.98;4.25;;;;;;;-0.89;50.83;100064.84;2076519;85;31072;-63
2022/04/03 01:44:11;;;;;;;9.05;4.45;;;;;;;-0.90;50.75;100067.04;2077093;85;33346;-63
2022/04/03 01:47:13;;;;;;;9.25;4.45;;;;;;;-0.93;51.02;100070.58;2077284;85;30319;-64
2022/04/03 01:50:15;;;;;;;8.10;4.08;;;;;;;-0.94;50.88;100068.83;2077041;85;27719;-63
2022/04/03 01:53:17;;;;;;;8.08;4.40;;;;;;;-0.96;51.01;100072.80;2076618;85;29685;-64
2022/04/03 01:56:19;;;;;;;8.45;4.12;;;;;;;-0.97;51.01;100077.62;2076248;85;31417;-63
2022/04/03 01:59:20;;;;;;;8.23;3.98;;;;;;;-0.99;51.05;100078.06;2076947;85;33793;-63
2022/04/03 02:02:22;;;;;;;9.35;4.78;;;;;;;-1.00;51.23;100076.77;2076751;85;30045;-64
2022/04/03 02:05:24;;;;;;;13.80;5.50;;;;;;;-1.01;51.41;100078.97;2077096;85;27629;-64
2022/04/03 02:08:26;;;;;;;9.88;4.65;;;;;;;-1.03;51.35;100080.73;2076832;84;28632;-63
2022/04/03 02:11:28;;;;;;;10.08;4.72;;;;;;;-1.03;51.42;100085.98;2076900;85;32211;-64
2022/04/03 02:14:30;;;;;;;10.70;4.72;;;;;;;-1.04;51.37;100082.47;2076345;85;33933;-63
2022/04/03 02:17:32;;;;;;;9.83;4.08;;;;;;;-1.05;51.47;100085.12;2073236;83;30956;-63
2022/04/03 02:20:34;;;;;;;10.40;4.65;;;;;;;-1.06;51.46;100092.11;2058185;86;27692;-63
2022/04/03 02:23:36;;;;;;;15.23;4.75;;;;;;;-1.07;51.48;100096.94;2058642;85;29867;-63
2022/04/03 02:26:38;;;;;;;15.95;5.42;;;;;;;-1.08;51.56;100092.59;2058880;85;32007;-63
2022/04/03 02:29:40;;;;;;;18.27;5.80;;;;;;;-1.10;51.61;100095.66;2057758;85;34181;-63
2022/04/03 02:32:42;;;;;;;13.05;4.95;;;;;;;-1.11;51.62;100097.41;2058646;85;29761;-64
2022/04/03 02:35:44;;;;;;;9.38;4.80;;;;;;;-1.12;51.74;100096.11;2059068;85;27717;-63
2022/04/03 02:38:46;;;;;;;12.88;4.75;;;;;;;-1.16;51.82;100096.58;2058845;86;29859;-63
2022/04/03 02:41:47;;;;;;;11.83;5.62;;;;;;;-1.17;51.95;100094.83;2058945;85;31698;-63
2022/04/03 02:44:49;;;;;;;11.85;5.00;;;;;;;-1.19;51.91;100100.95;2058927;85;33769;-63
2022/04/03 02:47:54;;;;;;;9.48;5.33;;;;;;;-1.23;51.85;100096.16;2058437;86;30405;-63
2022/04/03 02:50:56;;;;;;;14.38;3.75;;;;;;;-1.24;51.95;100095.72;2025521;85;27685;-64
2022/04/03 02:53:58;;;;;;;10.75;5.65;;;;;;;-1.27;52.06;100106.23;2048765;86;29487;-64
2022/04/03 02:56:59;;;;;;;13.62;5.47;;;;;;;-1.31;52.13;100109.33;2058563;85;31403;-64
2022/04/03 03:00:02;;;;;;;12.47;4.97;;;;;;;-1.38;52.20;100115.05;2058902;85;33349;-63
2022/04/03 03:03:06;;;;;;;9.80;4.75;;;;;;;-1.40;52.36;100111.98;2041468;86;29636;-64
2022/04/03 03:06:08;;;;;;;10.45;4.95;;;;;;;-1.45;52.56;100119.02;2058241;85;27758;-64
2022/04/03 03:09:11;;;;;;;15.72;5.20;;;;;;;-1.49;52.66;100118.59;2058773;85;29887;-65
2022/04/03 03:12:12;;;;;;;11.73;4.87;;;;;;;-1.52;52.71;100128.68;2058133;86;31905;-64
2022/04/03 03:15:15;;;;;;;8.25;5.00;;;;;;;-1.56;52.91;100131.73;2058582;85;33965;-65
2022/04/03 03:18:16;;;;;;;11.12;5.50;;;;;;;-1.58;53.05;100132.20;2071456;84;30351;-66
2022/04/03 03:21:18;;;;;;;11.73;4.95;;;;;;;-1.62;53.21;100130.45;2100568;84;27738;-66
2022/04/03 03:24:20;;;;;;;10.38;5.62;;;;;;;-1.64;53.33;100132.20;2100367;84;29516;-65
2022/04/03 03:27:22;;;;;;;12.58;5.87;;;;;;;-1.67;53.79;100136.14;2099397;84;32473;-64
2022/04/03 03:30:24;;;;;;;13.10;5.85;;;;;;;-1.70;53.79;100138.35;2100084;83;34200;-64
2022/04/03 03:33:26;;;;;;;13.15;5.67;;;;;;;-1.74;53.93;100137.05;2100099;84;30768;-65
2022/04/03 03:36:28;;;;;;;13.53;5.37;;;;;;;-1.78;54.12;100138.79;2100742;84;27723;-65
2022/04/03 03:39:31;;;;;;;12.82;5.53;;;;;;;-1.81;54.16;100141.87;2099924;84;29850;-66
2022/04/03 03:42:33;;;;;;;15.65;5.67;;;;;;;-1.84;54.44;100141.44;2100440;84;31858;-65
2022/04/03 03:45:36;;;;;;;9.83;4.97;;;;;;;-1.87;54.62;100142.75;2100317;84;33027;-65
2022/04/03 03:48:38;;;;;;;17.05;5.40;;;;;;;-1.90;54.76;100140.98;2100420;84;29617;-65
2022/04/03 03:51:40;;;;;;;12.33;5.50;;;;;;;-1.92;54.79;100148.44;2099885;84;27712;-65
2022/04/03 03:54:43;;;;;;;11.57;5.12;;;;;;;-1.95;54.99;100152.37;2100081;84;29525;-65
2022/04/03 03:57:48;;;;;;;17.40;5.70;;;;;;;-1.99;55.17;100161.59;2100124;84;33158;-65
2022/04/03 04:00:52;;;;;;;;;;;;;;;-2.00;55.29;100165.51;2102669;84;32903;-65
2022/04/03 04:03:54;;;;;;;13.40;6.08;;;;;;;-2.01;55.57;100165.96;2100572;84;30896;-65
2022/04/03 04:06:56;;;;;;;10.03;5.50;;;;;;;-2.03;55.69;100165.50;2100447;84;27785;-65
2022/04/03 04:09:58;;;;;;;14.60;5.35;;;;;;;-2.04;55.78;100169.00;2100418;84;29804;-66
2022/04/03 04:13:00;;;;;;;13.65;5.83;;;;;;;-2.06;56.24;100173.38;2100290;83;31403;-66
2022/04/03 04:16:05;;;;;;;10.75;5.05;;;;;;;-2.08;56.18;100173.84;2100108;84;34170;-66
2022/04/03 04:19:07;;;;;;;12.95;4.87;;;;;;;-2.08;56.28;100184.34;2051767;86;30468;-65
2022/04/03 04:22:08;;;;;;;9.23;5.20;;;;;;;-2.08;56.58;100184.34;2059266;85;27701;-65
2022/04/03 04:25:13;;;;;;;15.60;6.10;;;;;;;-2.07;56.69;100187.41;2058257;86;29577;-66
2022/04/03 04:28:15;;;;;;;9.78;4.53;;;;;;;-2.07;56.94;100188.71;2058646;86;31075;-65
2022/04/03 04:31:17;;;;;;;9.00;4.40;;;;;;;-2.07;57.06;100193.51;2057754;85;34160;-65
2022/04/03 04:34:19;;;;;;;11.00;5.40;;;;;;;-2.07;57.25;100200.08;2059008;85;30249;-65
2022/04/03 04:37:21;;;;;;;12.10;5.47;;;;;;;-2.06;57.46;100210.12;2058683;85;27671;-65
2022/04/03 04:40:23;;;;;;;11.00;5.15;;;;;;;-2.05;57.50;100204.89;2058775;86;30005;-65
2022/04/03 04:43:25;;;;;;;10.03;5.05;;;;;;;-2.02;57.52;100211.45;2057959;86;31484;-65
2022/04/03 04:46:26;;;;;;;10.48;5.42;;;;;;;-1.99;57.66;100211.89;2058227;85;33842;-65
2022/04/03 04:49:28;;;;;;;12.98;6.08;;;;;;;-1.94;57.71;100215.81;2058146;85;29623;-65
2022/04/03 04:52:30;;;;;;;10.85;5.47;;;;;;;-1.91;57.83;100220.66;2059251;86;27753;-65
2022/04/03 04:55:32;;;;;;;10.50;4.95;;;;;;;-1.85;57.94;100229.82;2059188;86;29307;-65
2022/04/03 04:58:34;;;;;;;13.15;5.78;;;;;;;-1.79;58.22;100230.70;2059062;86;31591;-65
2022/04/03 05:01:35;;;;;;;10.78;4.90;;;;;;;-1.73;57.96;100232.00;2059022;86;32909;-66
2022/04/03 05:04:38;;;;;;;12.03;5.92;;;;;;;-1.66;58.09;100234.22;2058884;85;30811;-65
2022/04/03 05:07:40;;;;;;;11.00;4.97;;;;;;;-1.58;58.09;100231.13;2058995;85;27826;-65
2022/04/03 05:10:43;;;;;;;11.15;5.10;;;;;;;-1.53;58.18;100231.55;2059052;85;29888;-65
2022/04/03 05:13:46;;;;;;;8.50;4.92;;;;;;;-1.47;58.31;100234.61;2058804;85;31756;-66
2022/04/03 05:16:49;;;;;;;10.08;4.87;;;;;;;-1.41;58.33;100237.69;2058675;85;33818;-66
2022/04/03 05:19:51;;;;;;;12.25;5.65;;;;;;;-1.34;58.54;100243.81;2080947;84;30008;-65
2022/04/03 05:22:53;;;;;;;11.20;5.12;;;;;;;-1.26;58.35;100244.65;2072048;84;27688;-66
2022/04/03 05:25:55;;;;;;;8.75;4.50;;;;;;;-1.17;58.13;100249.91;2097593;84;28586;-65
2022/04/03 05:28:56;;;;;;;9.20;5.10;;;;;;;-1.07;58.16;100248.99;2097323;84;31102;-66
2022/04/03 05:31:58;;;;;;;9.98;5.25;;;;;;;-0.98;58.11;100257.72;2097270;84;33818;-66
2022/04/03 05:35:01;;;;;;;11.20;5.20;;;;;;;-0.87;58.28;100264.26;2097110;84;31013;-66
2022/04/03 05:38:02;;;;;;;9.75;5.65;;;;;;;-0.79;57.95;100262.49;2097121;83;27641;-66
2022/04/03 05:41:04;;;;;;;9.13;5.10;;;;;;;-0.71;57.92;100255.89;2097189;84;29023;-66
2022/04/03 05:44:06;;;;;;;12.07;5.03;;;;;;;-0.64;57.86;100261.54;2096956;84;31237;-65
2022/04/03 05:47:08;;;;;;;11.63;5.12;;;;;;;-0.59;57.79;100262.41;2097407;84;32841;-65
2022/04/03 05:50:11;;;;;;;9.35;5.22;;;;;;;-0.54;57.64;100261.06;2097043;84;29810;-66
2022/04/03 05:53:13;;;;;;;12.60;5.33;;;;;;;-0.44;57.63;100270.68;2097541;84;27713;-66
2022/04/03 05:56:15;;;;;;;9.65;4.05;;;;;;;-0.27;57.65;100278.93;2097395;84;29052;-66
2022/04/03 05:59:19;;;;;;;12.23;5.03;;;;;;;-0.16;57.43;100275.78;2097189;84;32239;-66
2022/04/03 06:02:20;;;;;;;8.50;4.95;;;;;;;-0.04;57.35;100272.20;2055523;85;33870;-66
2022/04/03 06:05:26;;;;;;;9.35;5.08;;;;;;;0.12;57.26;100283.07;2097555;83;29987;-65
2022/04/03 06:08:28;;;;;;;9.50;4.75;;;;;;;0.34;57.15;100284.20;2101803;83;27629;-65
2022/04/03 06:11:30;;;;;;;10.58;4.90;;;;;;;0.56;56.88;100290.63;2133252;83;30051;-66
2022/04/03 06:14:32;;;;;;;12.05;5.75;;;;;;;0.74;56.68;100285.65;2103167;83;31273;-66
2022/04/03 06:17:33;;;;;;;11.53;5.85;;;;;;;0.84;56.32;100293.00;2096861;84;34229;-65
2022/04/03 06:20:36;;;;;;;12.25;5.15;;;;;;;0.84;56.05;100287.72;2097075;84;30223;-65
2022/04/03 06:23:38;;;;;;;10.25;4.40;;;;;;;0.86;56.01;100301.77;2097249;84;27720;-65
2022/04/03 06:26:39;;;;;;;7.60;4.75;;;;;;;0.85;55.86;100306.61;2109061;83;29867;-65
2022/04/03 06:29:41;;;;;;;8.68;4.97;;;;;;;0.78;55.70;100308.89;2097340;84;31428;-65
2022/04/03 06:32:43;;;;;;;7.83;4.67;;;;;;;0.73;55.74;100307.17;2097107;84;33836;-65
2022/04/03 06:35:46;;;;;;;10.00;5.37;;;;;;;0.70;55.66;100305.02;2096828;84;30470;-65
2022/04/03 06:38:48;;;;;;;7.55;4.60;;;;;;;0.69;55.70;100308.08;2097162;84;27704;-65
2022/04/03 06:41:51;;;;;;;9.45;4.72;;;;;;;1.00;55.78;100309.56;2097373;84;28647;-64
2022/04/03 06:44:53;;;;;;;8.58;4.83;;;;;;;1.31;55.72;100305.27;2096496;84;31282;-65
2022/04/03 06:48:00;;;;;;;9.08;4.83;;;;;;;1.74;55.20;100313.11;2096634;84;34186;-65
2022/04/03 06:51:02;;;;;;;12.28;4.97;;;;;;;2.17;55.15;100309.85;2097356;84;30692;-64
2022/04/03 06:54:04;;;;;;;10.63;4.72;;;;;;;2.64;54.47;100307.83;2097281;84;27663;-65
2022/04/03 06:57:07;;;;;;;10.35;4.30;;;;;;;2.99;53.69;100308.95;2096940;84;29984;-65
2022/04/03 07:00:13;;;;;;;7.03;4.58;;;;;;;3.33;53.06;100314.94;2096965;84;31836;-66
2022/04/03 07:03:14;;;;;;;6.45;4.17;;;;;;;3.37;52.25;100310.01;2097082;84;32977;-65
2022/04/03 07:06:17;;;;;;;9.95;4.78;;;;;;;3.38;52.43;100318.84;2071904;84;29742;-65
2022/04/03 07:09:19;;;;;;;6.53;3.85;;;;;;;3.24;52.12;100321.75;2097874;84;27630;-65
2022/04/03 07:12:21;;;;;;;9.75;4.78;;;;;;;3.21;52.26;100320.48;2066064;83;28744;-65
2022/04/03 07:15:23;;;;;;;9.33;4.62;;;;;;;3.61;51.85;100326.33;2097292;84;31876;-66
2022/04/03 07:18:25;;;;;;;7.28;4.05;;;;;;;4.18;52.13;100321.12;2097185;84;32997;-65
2022/04/03 07:21:27;;;;;;;8.68;4.22;;;;;;;4.89;51.40;100321.61;2062323;84;30265;-66
2022/04/03 07:24:29;;;;;;;10.18;3.98;;;;;;;5.52;50.67;100317.73;2058996;85;27621;-66
2022/04/03 07:27:31;;;;;;;6.60;3.72;;;;;;;6.06;49.74;100320.16;2061791;85;28734;-66
2022/04/03 07:30:32;;;;;;;8.78;3.80;;;;;;;6.51;48.03;100324.94;2023452;86;32048;-66
2022/04/03 07:33:35;;;;;;;6.35;3.85;;;;;;;6.76;48.12;100327.25;2037632;86;34137;-66
2022/04/03 07:36:37;;;;;;;4.97;3.47;;;;;;;7.01;47.22;100323.77;2058454;85;29602;-66
2022/04/03 07:39:41;;;;;;;5.12;3.72;;;;;;;7.18;46.07;100324.50;2059017;86;27710;-66
2022/04/03 07:42:45;;;;;;;7.75;3.95;;;;;;;7.49;46.58;100328.28;2058987;85;34012;-67
2022/04/03 07:45:49;;;;;;;4.25;2.95;;;;;;;7.87;45.65;100330.44;2058883;85;31188;-66
2022/04/03 07:48:51;;;;;;;4.75;3.45;;;;;;;8.28;45.11;100331.95;2058689;86;33724;-66
2022/04/03 07:51:53;;;;;;;5.37;3.75;;;;;;;8.49;43.96;100328.94;2058631;86;29708;-66
2022/04/03 07:54:55;;;;;;;7.42;3.70;;;;;;;8.55;43.15;100334.49;2058441;85;27771;-66
2022/04/03 07:57:57;;;;;;;4.87;3.27;;;;;;;8.46;43.76;100341.48;2057739;85;28716;-67
2022/04/03 08:00:59;;;;;;;6.45;2.58;;;;;;;8.61;43.42;100338.70;2058540;85;31019;-66
2022/04/03 08:04:01;;;;;;;4.30;2.70;;;;;;;8.81;43.28;100333.42;2058317;85;33069;-66
2022/04/03 08:07:03;;;;;;;7.70;3.67;;;;;;;8.71;41.90;100344.06;2025567;87;29645;-66
2022/04/03 08:10:09;;;;;;;3.87;2.95;;;;;;;8.37;41.58;100348.06;2025453;87;27757;-65
2022/04/03 08:13:11;;;;;;;4.47;2.90;;;;;;;8.45;41.80;100343.75;2037630;86;29980;-66
2022/04/03 08:16:14;;;;;;;5.42;3.05;;;;;;;8.64;41.64;100346.59;2058625;85;30430;-66
2022/04/03 08:19:18;;;;;;;6.58;3.58;;;;;;;8.93;41.13;100344.52;2059327;84;33845;-66
2022/04/03 08:22:20;;;;;;;4.87;3.02;;;;;;;8.99;41.68;100346.94;2097142;84;30528;-67
2022/04/03 08:25:22;;;;;;;4.75;3.10;;;;;;;8.76;39.94;100354.58;2097200;84;27635;-65
2022/04/03 08:28:24;;;;;;;6.67;3.20;;;;;;;8.15;39.73;100360.94;2097106;84;29881;-65
2022/04/03 08:31:28;;;;;;;4.40;2.70;;;;;;;7.54;39.85;100355.62;2097257;84;32253;-65
2022/04/03 08:34:29;;;;;;;5.78;3.05;;;;;;;7.33;40.60;100357.27;2097070;84;32963;-66
2022/04/03 08:37:31;;;;;;;5.22;3.20;;;;;;;7.60;40.40;100355.41;2097375;84;30554;-65
2022/04/03 08:40:34;;;;;;;7.85;3.37;;;;;;;7.69;40.70;100358.68;2097357;83;27735;-66
2022/04/03 08:43:37;;;;;;;5.85;3.65;;;;;;;7.78;40.74;100358.33;2096828;84;28883;-67
2022/04/03 08:46:41;;;;;;;7.83;4.85;;;;;;;7.63;40.29;100359.75;2097341;84;31424;-65
2022/04/03 08:49:44;;;;;;;6.35;3.70;;;;;;;7.48;40.42;100365.63;2071740;84;33120;-65
2022/04/03 08:52:49;;;;;;;6.35;4.28;;;;;;;7.29;40.36;100365.83;2097681;84;29710;-65
2022/04/03 08:55:51;;;;;;;14.58;6.50;;;;;;;7.12;40.29;100370.40;2097539;83;27722;-65
2022/04/03 08:58:53;;;;;;;12.33;6.80;;;;;;;7.01;40.48;100360.58;2097158;84;28643;-67
2022/04/03 09:01:56;;;;;;;7.25;3.67;;;;;;;7.08;40.23;100365.23;2096857;84;33217;-66
2022/04/03 09:04:58;;;;;;;4.20;2.62;;;;;;;7.06;39.68;100368.41;2096817;84;35119;-66
2022/04/03 09:08:01;;;;;;;3.37;2.20;;;;;;;6.95;39.05;100377.64;2097056;84;29411;-66
2022/04/03 09:11:05;;;;;;;2.08;1.75;;;;;;;6.80;37.76;100367.03;2097070;84;27779;-66
2022/04/03 09:14:14;;;;;;;2.83;1.98;;;;;;;6.73;37.62;100373.49;2097250;83;28642;-65
2022/04/03 09:17:45;;;;;;;9.00;5.50;;;;;;;6.77;37.79;100373.81;2096880;84;31070;-67
2022/04/03 09:20:47;;;;;;;6.60;3.87;;;;;;;6.87;37.31;100377.48;2080589;83;33874;-66
2022/04/03 09:24:11;;;;;;;3.30;2.40;;;;;;;6.80;36.68;100381.67;2058763;86;30468;-66
2022/04/03 09:27:13;;;;;;;6.22;3.20;;;;;;;6.59;36.69;100370.41;2058723;86;27751;-65
2022/04/03 09:30:18;;;;;;;5.65;2.85;;;;;;;6.50;37.59;100377.75;2058850;85;28649;-65
2022/04/03 09:33:22;;;;;;;3.45;2.25;;;;;;;6.59;36.81;100385.05;2059002;85;32847;-64
2022/04/03 09:36:24;;;;;;;4.53;2.90;;;;;;;6.56;36.85;100384.66;2058729;85;32977;-65
2022/04/03 09:39:29;;;;;;;3.08;2.20;;;;;;;6.46;37.05;100384.08;2058652;85;30471;-65
2022/04/03 09:42:30;;;;;;;4.17;2.47;;;;;;;6.32;37.04;100388.52;2058550;86;27940;-65
2022/04/03 09:45:32;;;;;;;7.28;3.85;;;;;;;6.25;37.83;100379.45;2058205;86;29604;-65
2022/04/03 09:48:39;;;;;;;5.17;3.25;;;;;;;6.27;38.32;100381.12;2058246;86;31920;-65
2022/04/03 09:51:43;;;;;;;6.67;2.83;;;;;;;6.38;38.15;100377.67;2058665;85;33850;-64
2022/04/03 09:54:46;;;;;;;5.97;3.05;;;;;;;6.60;38.26;100368.16;2058777;85;29788;-66
2022/04/03 09:58:06;;;;;;;5.17;3.10;;;;;;;6.96;37.48;100365.18;2059006;85;27837;-63
2022/04/03 10:01:35;;;;;;;5.90;3.00;;;;;;;7.15;36.50;100372.97;2058520;85;29472;-64
2022/04/03 10:04:38;;;;;;;4.58;3.05;;;;;;;7.35;35.69;100377.22;2058406;85;31139;-64
2022/04/03 10:07:40;;;;;;;5.47;3.15;;;;;;;7.23;36.05;100375.84;2044975;86;34194;-64
2022/04/03 10:10:42;;;;;;;7.25;3.65;;;;;;;7.14;36.15;100381.88;2058233;85;29668;-64
2022/04/03 10:13:45;;;;;;;4.28;2.87;;;;;;;7.04;36.52;100388.89;2058859;86;28051;-64
2022/04/03 10:16:47;;;;;;;5.55;2.75;;;;;;;6.86;36.14;100403.27;2058326;85;29516;-65
2022/04/03 10:19:51;;;;;;;3.85;2.12;;;;;;;6.73;37.07;100394.80;2058559;85;30934;-64
2022/04/03 10:23:08;;;;;;;2.98;1.90;;;;;;;6.68;36.64;100398.94;2071666;84;33934;-65
2022/04/03 10:26:16;;;;;;;2.92;1.60;;;;;;;6.62;36.65;100396.46;2096935;84;30858;-64
2022/04/03 10:29:20;;;;;;;5.45;2.58;;;;;;;6.66;36.41;100387.91;2097384;84;27696;-65
2022/04/03 10:32:28;;;;;;;5.42;3.00;;;;;;;6.66;36.30;100379.48;2096896;84;29524;-65
2022/04/03 10:35:30;;;;;;;6.05;4.72;;;;;;;6.75;37.18;100386.74;2097360;84;31035;-63
2022/04/03 10:38:39;;;;;;;5.40;3.85;;;;;;;7.07;37.85;100380.81;2096716;84;33003;-64
2022/04/03 10:41:43;;;;;;;5.55;3.02;;;;;;;7.18;37.97;100378.67;2091381;83;30427;-64
2022/04/03 10:45:15;;;;;;;10.82;5.05;;;;;;;7.13;37.90;100384.61;2125028;83;27263;-64
2022/04/03 10:48:26;;;;;;;4.50;3.42;;;;;;;7.04;38.04;100389.78;2097092;84;28345;-64
2022/04/03 10:51:31;;;;;;;15.23;7.17;;;;;;;6.74;37.13;100392.55;2096398;84;30823;-64
2022/04/03 10:54:39;;;;;;;3.27;2.30;;;;;;;6.52;37.66;100385.70;2055422;86;33026;-66
2022/04/03 10:57:50;;;;;;;4.10;2.85;;;;;;;6.37;37.28;100394.55;2080695;84;29674;-63
2022/04/03 11:00:53;;;;;;;4.90;2.30;;;;;;;6.28;37.59;100390.00;2096120;84;28045;-64
2022/04/03 11:04:01;;;;;;;4.78;2.00;;;;;;;6.36;37.18;100392.84;2097344;84;28675;-63
2022/04/03 11:07:13;;;;;;;3.87;2.17;;;;;;;6.38;36.97;100387.45;2097067;84;32008;-64
2022/04/03 11:10:18;;;;;;;6.08;3.15;;;;;;;6.56;37.08;100377.16;2096978;84;34004;-64
2022/04/03 11:13:37;;;;;;;4.63;2.93;;;;;;;6.79;37.02;100377.74;2093548;83;30563;-64
2022/04/03 11:16:53;;;;;;;3.92;2.20;;;;;;;6.86;36.94;100351.34;2104308;83;27621;-64
2022/04/03 11:19:59;;;;;;;4.05;2.30;;;;;;;7.20;36.19;100377.27;2122032;83;28683;-63
2022/04/03 11:23:02;;;;;;;2.67;1.82;;;;;;;7.42;36.24;100376.05;2100133;83;31857;-64
2022/04/03 11:26:05;;;;;;;3.40;1.92;;;;;;;7.45;35.05;100376.81;2099877;84;33002;-64
2022/04/03 11:29:10;;;;;;;4.95;2.33;;;;;;;7.27;35.49;100373.48;2100367;84;30402;-65
2022/04/03 11:32:12;;;;;;;5.90;2.60;;;;;;;7.19;35.09;100376.86;2100261;84;36919;-65
2022/04/03 11:35:15;;;;;;;4.40;2.95;;;;;;;6.99;35.90;100377.07;2099064;84;29525;-64
2022/04/03 11:38:18;;;;;;;5.70;3.45;;;;;;;6.71;35.56;100378.44;2084513;84;31418;-66
2022/04/03 11:41:31;;;;;;;6.50;3.72;;;;;;;6.58;36.31;100379.31;2076588;84;33026;-65
2022/04/03 11:44:37;;;;;;;8.55;4.95;;;;;;;6.59;36.43;100391.23;2055877;85;29647;-65
2022/04/03 11:47:40;;;;;;;6.67;3.60;;;;;;;6.65;36.44;100383.50;2055547;86;27715;-64
2022/04/03 11:50:43;;;;;;;6.75;3.50;;;;;;;6.69;35.79;100382.49;2042217;86;29505;-65
2022/04/03 11:53:51;;;;;;;5.65;2.80;;;;;;;6.78;35.98;100383.54;2055754;86;31072;-65
2022/04/03 11:57:00;;;;;;;6.92;2.92;;;;;;;6.90;35.47;100376.06;2063391;86;32974;-63
2022/04/03 12:00:05;;;;;;;5.97;2.80;;;;;;;7.15;36.26;100372.11;2055768;85;29691;-63
2022/04/03 12:03:08;;;;;;;6.73;3.30;;;;;;;7.33;35.50;100360.41;2056299;86;27615;-63
2022/04/03 12:06:16;;;;;;;9.13;2.55;;;;;;;7.43;35.86;100364.47;2034246;87;28881;-63
2022/04/03 12:09:21;;;;;;;3.87;2.30;;;;;;;7.57;35.64;100355.98;2034318;87;31109;-63
2022/04/03 12:12:24;;;;;;;7.05;2.40;;;;;;;7.63;34.89;100364.22;2033581;87;34175;-65
2022/04/03 12:15:30;;;;;;;3.17;2.52;;;;;;;7.39;34.71;100358.39;2034488;87;29698;-65
2022/04/03 12:19:00;;;;;;;6.08;3.02;;;;;;;7.28;34.79;100355.24;2059735;86;27781;-65
2022/04/03 12:22:08;;;;;;;3.45;2.40;;;;;;;7.19;35.05;100355.10;2065910;84;28621;-64
2022/04/03 12:25:08;;;;;;;4.90;2.30;;;;;;;7.11;34.91;100351.38;2096005;84;31302;-65
2022/04/03 12:28:10;;;;;;;4.72;2.27;;;;;;;7.04;34.00;100355.16;2097275;84;33850;-65
2022/04/03 12:31:15;;;;;;;5.62;3.40;;;;;;;7.05;33.67;100347.58;2096712;84;30222;-64
2022/04/03 12:34:17;;;;;;;7.50;3.10;;;;;;;7.12;34.12;100341.09;2097620;84;27730;-66
2022/04/03 12:37:20;;;;;;;5.28;2.80;;;;;;;7.26;34.43;100336.63;2096949;84;30059;-64
2022/04/03 12:40:23;;;;;;;6.65;3.08;;;;;;;7.41;34.18;100339.66;2097272;84;32024;-65
2022/04/03 12:43:25;;;;;;;6.58;4.22;;;;;;;7.60;34.51;100339.41;2097086;84;33754;-64
2022/04/03 12:46:37;;;;;;;7.28;3.58;;;;;;;7.78;34.38;100330.80;2097167;84;30334;-65
2022/04/03 12:49:40;;;;;;;5.28;2.60;;;;;;;7.79;33.85;100332.51;2071694;84;27663;-66
2022/04/03 12:52:53;;;;;;;4.78;2.67;;;;;;;7.75;33.59;100330.43;2099187;83;29611;-65
2022/04/03 12:55:56;;;;;;;6.28;3.90;;;;;;;7.70;32.66;100339.05;2096866;84;32334;-65
2022/04/03 12:58:58;;;;;;;6.37;2.22;;;;;;;7.60;33.91;100338.55;2097115;84;33651;-66
2022/04/03 13:02:01;;;;;;;5.72;3.55;;;;;;;7.60;33.76;100335.89;2096962;84;30832;-66
2022/04/03 13:05:04;;;;;;;4.17;2.80;;;;;;;7.57;33.92;100336.85;2071470;84;27748;-66
2022/04/03 13:08:11;;;;;;;6.45;2.42;;;;;;;7.53;33.28;100337.88;2097390;84;28688;-66
2022/04/03 13:11:39;;;;;;;4.40;2.33;;;;;;;7.46;33.54;100332.38;2097212;84;32197;-66
2022/04/03 13:14:41;;;;;;;12.23;5.87;;;;;;;7.42;33.61;100326.30;2041071;87;33342;-66
2022/04/03 13:17:44;;;;;;;7.85;3.60;;;;;;;7.58;34.18;100317.74;2032372;87;29622;-66
2022/04/03 13:20:52;;;;;;;4.80;2.75;;;;;;;7.72;33.87;100318.54;2023509;88;27801;-65
2022/04/03 13:23:54;;;;;;;11.33;4.35;;;;;;;7.77;33.69;100311.73;2032811;87;30665;-65
2022/04/03 13:26:59;;;;;;;4.80;2.70;;;;;;;7.83;32.67;100317.69;2043853;87;31060;-65
2022/04/03 13:30:01;;;;;;;8.40;3.30;;;;;;;7.76;32.41;100314.84;2043825;87;32975;-65
2022/04/03 13:33:04;;;;;;;8.58;3.35;;;;;;;7.77;33.13;100307.25;2040689;87;30257;-66
2022/04/03 13:36:06;;;;;;;5.33;3.05;;;;;;;7.86;33.31;100310.88;2043096;87;27741;-65
2022/04/03 13:39:10;;;;;;;5.37;2.80;;;;;;;7.99;33.28;100317.95;1990719;89;29535;-66
2022/04/03 13:42:13;;;;;;;12.58;6.25;;;;;;;8.11;32.95;100309.09;2022907;87;30462;-66
2022/04/03 13:45:15;;;;;;;10.00;4.62;;;;;;;8.12;33.17;100322.80;2066182;84;33356;-65
2022/04/03 13:48:18;;;;;;;6.50;3.20;;;;;;;8.12;33.27;100314.36;2097082;84;30942;-65
2022/04/03 13:51:20;;;;;;;5.28;3.17;;;;;;;8.13;33.44;100317.88;2097162;84;27640;-67
2022/04/03 13:54:22;;;;;;;11.15;4.95;;;;;;;8.15;33.32;100318.24;2096475;84;29053;-64
2022/04/03 13:57:25;;;;;;;5.58;3.35;;;;;;;8.08;33.02;100317.21;2096964;84;32233;-64
2022/04/03 14:00:27;;;;;;;10.60;4.03;;;;;;;7.99;32.87;100316.62;2096018;84;33921;-66
2022/04/03 14:03:33;;;;;;;5.42;3.35;;;;;;;7.87;33.15;100314.44;2096800;84;30555;-66
2022/04/03 14:06:35;;;;;;;6.12;3.20;;;;;;;7.77;33.24;100308.58;2097373;84;27755;-66
2022/04/03 14:09:36;;;;;;;5.85;3.22;;;;;;;7.81;33.37;100305.32;2097094;84;30032;-66
2022/04/03 14:12:39;;;;;;;4.25;3.15;;;;;;;7.87;33.46;100303.28;2097391;84;32211;-64
2022/04/03 14:15:42;;;;;;;5.08;3.10;;;;;;;7.98;33.57;100303.36;2097333;84;33741;-64
2022/04/03 14:18:44;;;;;;;7.22;3.92;;;;;;;8.05;33.60;100295.50;2096846;84;31018;-64